createdAt,value
2023-01-29T00:02:11.225Z,9.47
2023-01-29T00:05:10.024Z,10.00
2023-01-29T00:08:05.594Z,10.63
2023-01-29T00:10:54.093Z,9.77
2023-01-29T00:13:42.627Z,11.20
2023-01-29T00:16:32.574Z,9.50
2023-01-29T00:19:21.092Z,9.17
2023-01-29T00:22:10.419Z,8.93
2023-01-29T00:24:59.187Z,10.23
2023-01-29T00:27:47.624Z,8.60
2023-01-29T00:30:36.986Z,9.70
2023-01-29T00:33:26.791Z,9.67
2023-01-29T00:36:17.063Z,10.03
2023-01-29T00:39:10.611Z,8.83
2023-01-29T00:42:16.816Z,11.50
2023-01-29T00:45:06.166Z,9.90
2023-01-29T00:47:54.606Z,10.00
2023-01-29T00:50:44.544Z,8.27
2023-01-29T00:53:32.960Z,13.33
2023-01-29T00:56:21.390Z,9.67
2023-01-29T00:59:09.910Z,8.70
2023-01-29T01:02:15.787Z,10.53
2023-01-29T01:05:06.051Z,8.73
2023-01-29T01:07:57.593Z,9.03
2023-01-29T01:10:45.082Z,9.33
2023-01-29T01:13:34.340Z,11.13
2023-01-29T01:16:22.981Z,9.43
2023-01-29T01:19:11.649Z,9.13
2023-01-29T01:22:00.164Z,8.57
2023-01-29T01:24:50.400Z,9.30
2023-01-29T01:27:41.106Z,8.53
2023-01-29T01:30:29.724Z,9.63
2023-01-29T01:33:18.425Z,9.33
2023-01-29T01:36:09.804Z,9.33
2023-01-29T01:38:58.302Z,9.57
2023-01-29T01:41:48.135Z,9.33
2023-01-29T01:44:56.524Z,11.03
2023-01-29T01:47:48.432Z,11.20
2023-01-29T01:50:40.693Z,9.70
2023-01-29T01:53:32.224Z,8.80
2023-01-29T01:56:24.643Z,8.37
2023-01-29T01:59:15.943Z,9.17
2023-01-29T02:02:21.815Z,16.40
2023-01-29T02:05:29.028Z,9.50
2023-01-29T02:08:37.404Z,9.50
2023-01-29T02:11:25.858Z,9.60
2023-01-29T02:14:15.670Z,9.03
2023-01-29T02:17:04.312Z,9.33
2023-01-29T02:20:03.093Z,9.10
2023-01-29T02:23:13.810Z,9.57
2023-01-29T02:26:11.518Z,8.53
2023-01-29T02:29:22.412Z,10.90
2023-01-29T02:32:18.068Z,10.07
2023-01-29T02:35:28.526Z,11.00
2023-01-29T02:38:22.378Z,10.37
2023-01-29T02:41:14.963Z,10.03
2023-01-29T02:44:09.800Z,9.93
2023-01-29T02:47:02.107Z,9.97
2023-01-29T02:49:53.822Z,9.30
2023-01-29T02:52:49.717Z,8.90
2023-01-29T02:55:41.424Z,9.33
2023-01-29T02:58:32.382Z,10.73
2023-01-29T03:01:26.001Z,9.00
2023-01-29T03:04:19.675Z,9.47
2023-01-29T03:07:22.456Z,10.13
2023-01-29T03:10:16.914Z,9.93
2023-01-29T03:13:11.737Z,11.47
2023-01-29T03:16:03.029Z,11.53
2023-01-29T03:18:57.119Z,10.07
2023-01-29T03:21:55.348Z,9.23
2023-01-29T03:25:05.289Z,10.13
2023-01-29T03:28:14.928Z,9.87
2023-01-29T03:31:23.616Z,9.67
2023-01-29T03:34:18.131Z,9.50
2023-01-29T03:37:09.851Z,10.30
2023-01-29T03:39:58.460Z,12.43
2023-01-29T03:42:56.849Z,9.40
2023-01-29T03:45:53.649Z,9.20
2023-01-29T03:48:48.099Z,9.50
2023-01-29T03:51:39.447Z,10.30
2023-01-29T03:54:33.375Z,11.40
2023-01-29T03:57:29.853Z,10.20
2023-01-29T04:00:21.197Z,10.20
2023-01-29T04:03:15.597Z,12.43
2023-01-29T04:06:10.680Z,9.90
2023-01-29T04:09:05.032Z,9.63
2023-01-29T04:11:58.667Z,9.20
2023-01-29T04:14:48.124Z,13.80
2023-01-29T04:17:40.424Z,9.60
2023-01-29T04:20:29.194Z,9.90
2023-01-29T04:23:22.521Z,11.53
2023-01-29T04:26:24.749Z,10.17
2023-01-29T04:29:23.075Z,11.90
2023-01-29T04:32:16.415Z,14.93
2023-01-29T04:35:11.218Z,9.83
2023-01-29T04:38:08.100Z,9.73
2023-01-29T04:41:04.241Z,10.00
2023-01-29T04:44:00.801Z,12.50
2023-01-29T04:46:53.551Z,9.27
2023-01-29T04:49:46.434Z,10.03
2023-01-29T04:52:43.256Z,10.27
2023-01-29T04:55:37.514Z,10.80
2023-01-29T04:58:29.446Z,9.50
2023-01-29T05:01:20.489Z,10.10
2023-01-29T05:04:12.152Z,10.43
2023-01-29T05:07:03.326Z,10.63
2023-01-29T05:09:52.356Z,9.73
2023-01-29T05:12:41.667Z,9.43
2023-01-29T05:15:34.860Z,11.60
2023-01-29T05:18:25.039Z,10.40
2023-01-29T05:21:13.869Z,11.20
2023-01-29T05:24:10.755Z,12.77
2023-01-29T05:27:16.660Z,9.77
2023-01-29T05:30:06.074Z,10.50
2023-01-29T05:32:54.563Z,12.00
2023-01-29T05:35:44.546Z,10.90
2023-01-29T05:38:33.046Z,16.47
2023-01-29T05:41:22.101Z,14.20
2023-01-29T05:44:10.871Z,9.90
2023-01-29T05:46:59.422Z,9.37
2023-01-29T05:49:47.902Z,9.40
2023-01-29T05:52:37.739Z,11.30
2023-01-29T05:55:26.318Z,9.93
2023-01-29T05:58:15.192Z,8.57
2023-01-29T06:01:11.199Z,9.87
2023-01-29T06:03:59.703Z,10.17
2023-01-29T06:06:48.186Z,8.80
2023-01-29T06:09:38.030Z,10.30
2023-01-29T06:12:27.829Z,9.70
2023-01-29T06:15:16.589Z,8.80
2023-01-29T06:18:05.271Z,9.83
2023-01-29T06:20:53.739Z,10.67
2023-01-29T06:23:42.576Z,9.50
2023-01-29T06:26:32.449Z,11.03
2023-01-29T06:29:20.920Z,9.83
2023-01-29T06:32:09.452Z,12.57
2023-01-29T06:34:57.961Z,8.30
2023-01-29T06:37:46.482Z,10.23
2023-01-29T06:40:35.000Z,8.43
2023-01-29T06:43:25.276Z,8.57
2023-01-29T06:46:13.896Z,11.20
2023-01-29T06:49:02.399Z,12.10
2023-01-29T06:51:50.891Z,9.40
2023-01-29T06:54:39.328Z,8.80
2023-01-29T06:57:29.850Z,11.03
2023-01-29T07:00:20.468Z,9.47
2023-01-29T07:03:11.624Z,11.60
2023-01-29T07:06:00.136Z,8.03
2023-01-29T07:08:48.665Z,9.30
2023-01-29T07:11:38.023Z,9.40
2023-01-29T07:14:26.464Z,8.73
2023-01-29T07:17:16.262Z,10.17
2023-01-29T07:20:05.887Z,9.60
2023-01-29T07:22:54.374Z,9.70
2023-01-29T07:25:42.954Z,9.60
2023-01-29T07:28:31.446Z,11.33
2023-01-29T07:31:20.214Z,11.13
2023-01-29T07:34:10.165Z,8.83
2023-01-29T07:36:58.620Z,10.53
2023-01-29T07:39:47.661Z,11.40
2023-01-29T07:42:36.094Z,10.53
2023-01-29T07:45:24.596Z,9.70
2023-01-29T07:48:14.089Z,9.60
2023-01-29T07:51:03.981Z,9.20
2023-01-29T07:53:53.358Z,11.43
2023-01-29T07:56:41.826Z,10.83
2023-01-29T07:59:30.326Z,9.60
2023-01-29T08:02:19.004Z,9.23
2023-01-29T08:05:08.596Z,10.60
2023-01-29T08:08:06.530Z,9.37
2023-01-29T08:10:56.161Z,9.47
2023-01-29T08:13:45.661Z,8.93
2023-01-29T08:16:34.237Z,9.63
2023-01-29T08:19:23.430Z,10.37
2023-01-29T08:22:11.879Z,10.57
2023-01-29T08:25:08.174Z,9.30
2023-01-29T08:27:57.749Z,10.07
2023-01-29T08:30:46.255Z,8.27
2023-01-29T08:36:43.202Z,8.47
2023-01-29T08:39:33.094Z,9.50
2023-01-29T08:42:23.544Z,8.50
2023-01-29T08:45:12.833Z,8.57
2023-01-29T08:48:01.307Z,8.67
2023-01-29T08:50:49.806Z,9.13
2023-01-29T08:53:38.230Z,9.43
2023-01-29T08:56:26.816Z,7.93
2023-01-29T08:59:16.897Z,8.27
2023-01-29T09:02:05.391Z,8.77
2023-01-29T09:04:53.957Z,7.93
2023-01-29T09:07:42.693Z,8.63
2023-01-29T09:10:31.329Z,8.63
2023-01-29T09:13:19.963Z,9.20
2023-01-29T09:16:10.523Z,8.90
2023-01-29T09:18:59.029Z,8.30
2023-01-29T09:21:47.548Z,9.70
2023-01-29T09:24:35.998Z,10.73
2023-01-29T09:27:24.865Z,9.17
2023-01-29T09:30:13.973Z,11.57
2023-01-29T09:33:03.976Z,9.20
2023-01-29T09:35:52.445Z,10.30
2023-01-29T09:38:41.067Z,8.97
2023-01-29T09:41:39.823Z,9.53
2023-01-29T09:44:39.663Z,9.83
2023-01-29T09:47:28.813Z,10.20
2023-01-29T09:50:21.304Z,12.10
2023-01-29T09:53:16.949Z,11.50
2023-01-29T09:56:07.202Z,10.83
2023-01-29T09:59:00.468Z,10.77
2023-01-29T10:01:57.011Z,11.00
2023-01-29T10:04:56.985Z,10.13
2023-01-29T10:08:11.142Z,9.83
2023-01-29T10:11:08.173Z,9.50
2023-01-29T10:14:05.247Z,8.27
2023-01-29T10:17:04.196Z,7.50
2023-01-29T10:20:07.927Z,9.43
2023-01-29T10:23:17.059Z,8.70
2023-01-29T10:26:05.689Z,8.10
2023-01-29T10:28:56.591Z,8.47
2023-01-29T10:31:47.748Z,8.60
2023-01-29T10:34:39.619Z,9.67
2023-01-29T10:37:36.153Z,11.20
2023-01-29T10:40:30.285Z,9.17
2023-01-29T10:43:23.453Z,13.00
2023-01-29T10:46:19.172Z,9.60
2023-01-29T10:49:17.702Z,9.87
2023-01-29T10:52:13.016Z,9.93
2023-01-29T10:55:09.618Z,8.27
2023-01-29T10:58:06.802Z,9.17
2023-01-29T11:00:55.384Z,8.13
2023-01-29T11:03:44.091Z,7.50
2023-01-29T11:06:34.064Z,9.80
2023-01-29T11:09:29.360Z,9.03
2023-01-29T11:12:20.949Z,10.50
2023-01-29T11:15:17.928Z,12.53
2023-01-29T11:18:10.599Z,8.73
2023-01-29T11:21:03.610Z,9.87
2023-01-29T11:23:52.617Z,9.57
2023-01-29T11:26:42.505Z,8.90
2023-01-29T11:29:35.382Z,9.50
2023-01-29T11:32:31.569Z,72.23
2023-01-29T11:35:22.605Z,12.37
2023-01-29T11:38:20.817Z,9.57
2023-01-29T11:41:18.103Z,8.83
2023-01-29T11:44:19.126Z,10.20
2023-01-29T11:47:19.412Z,9.40
2023-01-29T11:50:22.051Z,10.07
2023-01-29T11:53:24.530Z,9.10
2023-01-29T11:56:21.352Z,9.10
2023-01-29T11:59:27.253Z,8.20
2023-01-29T12:02:23.778Z,8.60
2023-01-29T12:05:17.799Z,9.07
2023-01-29T12:08:16.700Z,12.67
2023-01-29T12:11:13.891Z,9.57
2023-01-29T12:14:03.632Z,9.87
2023-01-29T12:16:55.448Z,10.63
2023-01-29T12:19:46.379Z,9.20
2023-01-29T12:22:41.868Z,10.20
2023-01-29T12:25:40.355Z,7.90
2023-01-29T12:28:47.938Z,8.33
2023-01-29T12:31:41.810Z,7.90
2023-01-29T12:34:38.273Z,7.87
2023-01-29T12:37:31.820Z,9.13
2023-01-29T12:40:22.945Z,16.20
2023-01-29T12:43:17.107Z,8.30
2023-01-29T12:46:07.917Z,9.47
2023-01-29T12:48:57.736Z,9.17
2023-01-29T12:51:54.332Z,8.73
2023-01-29T12:54:45.882Z,8.33
2023-01-29T12:57:41.251Z,9.30
2023-01-29T13:00:32.906Z,9.10
2023-01-29T13:03:25.443Z,10.27
2023-01-29T13:06:17.166Z,9.57
2023-01-29T13:09:07.867Z,10.07
2023-01-29T13:12:01.547Z,7.50
2023-01-29T13:14:55.305Z,8.13
2023-01-29T13:17:45.896Z,7.53
2023-01-29T13:20:35.338Z,8.10
2023-01-29T13:23:29.679Z,7.30
2023-01-29T13:26:22.562Z,8.10
2023-01-29T13:29:22.198Z,7.47
2023-01-29T13:32:12.073Z,9.37
2023-01-29T13:35:03.923Z,7.90
2023-01-29T13:37:54.649Z,11.43
2023-01-29T13:40:50.033Z,7.20
2023-01-29T13:43:39.930Z,7.87
2023-01-29T13:46:29.846Z,8.30
2023-01-29T13:49:28.948Z,8.80
2023-01-29T13:52:24.508Z,7.73
2023-01-29T13:55:23.913Z,9.00
2023-01-29T13:58:16.957Z,8.50
2023-01-29T14:01:05.791Z,7.47
2023-01-29T14:04:04.801Z,8.27
2023-01-29T14:06:57.347Z,7.97
2023-01-29T14:10:14.362Z,7.70
2023-01-29T14:13:27.408Z,8.10
2023-01-29T14:16:36.142Z,7.90
2023-01-29T14:19:25.637Z,9.40
2023-01-29T14:22:22.728Z,9.70
2023-01-29T14:25:18.495Z,8.87
2023-01-29T14:28:15.905Z,9.90
2023-01-29T14:31:04.972Z,9.33
2023-01-29T14:33:53.880Z,9.00
2023-01-29T14:36:43.491Z,8.43
2023-01-29T14:39:36.655Z,10.30
2023-01-29T14:42:27.336Z,8.77
2023-01-29T14:45:24.676Z,8.70
2023-01-29T14:48:38.496Z,9.00
2023-01-29T14:51:28.174Z,7.80
2023-01-29T14:54:22.304Z,8.83
2023-01-29T14:57:14.440Z,8.00
2023-01-29T15:00:05.380Z,7.30
2023-01-29T15:03:01.639Z,7.87
2023-01-29T15:05:50.931Z,8.17
2023-01-29T15:08:42.786Z,8.70
2023-01-29T15:11:35.490Z,8.50
2023-01-29T15:14:31.140Z,8.83
2023-01-29T15:17:24.319Z,8.93
2023-01-29T15:20:28.145Z,9.97
2023-01-29T15:23:27.556Z,10.43
2023-01-29T15:26:20.197Z,8.53
2023-01-29T15:29:23.373Z,10.00
2023-01-29T15:32:20.122Z,9.20
2023-01-29T15:35:10.717Z,9.10
2023-01-29T15:38:00.173Z,7.80
2023-01-29T15:40:56.513Z,9.20
2023-01-29T15:43:46.732Z,10.10
2023-01-29T15:46:37.061Z,11.80
2023-01-29T15:49:31.900Z,9.13
2023-01-29T15:52:25.346Z,9.67
2023-01-29T15:55:16.106Z,13.43
2023-01-29T15:58:07.543Z,10.13
2023-01-29T16:00:58.016Z,10.57
2023-01-29T16:03:47.718Z,13.80
2023-01-29T16:06:40.288Z,10.60
2023-01-29T16:09:30.020Z,9.77
2023-01-29T16:12:18.671Z,9.77
2023-01-29T16:15:08.670Z,11.70
2023-01-29T16:17:57.440Z,11.17
2023-01-29T16:20:47.323Z,14.53
2023-01-29T16:23:41.960Z,10.73
2023-01-29T16:26:34.231Z,11.60
2023-01-29T16:29:25.037Z,11.53
2023-01-29T16:32:13.971Z,11.30
2023-01-29T16:35:02.672Z,12.13
2023-01-29T16:38:03.195Z,12.87
2023-01-29T16:41:07.657Z,12.50
2023-01-29T16:43:58.251Z,12.83
2023-01-29T16:46:47.994Z,10.70
2023-01-29T16:49:50.816Z,12.03
2023-01-29T16:52:39.369Z,11.33
2023-01-29T16:55:34.179Z,12.40
2023-01-29T16:58:28.191Z,12.57
2023-01-29T17:01:16.740Z,11.57
2023-01-29T17:04:09.910Z,11.53
2023-01-29T17:07:00.952Z,11.80
2023-01-29T17:09:51.707Z,10.73
2023-01-29T17:12:40.285Z,12.50
2023-01-29T17:15:34.516Z,12.80
2023-01-29T17:18:24.810Z,11.97
2023-01-29T17:21:13.384Z,12.10
2023-01-29T17:24:01.855Z,12.90
2023-01-29T17:26:50.454Z,12.33
2023-01-29T17:29:39.978Z,12.80
2023-01-29T17:32:43.911Z,12.30
2023-01-29T17:35:33.748Z,12.10
2023-01-29T17:38:26.243Z,13.70
2023-01-29T17:41:19.366Z,13.40
2023-01-29T17:44:07.819Z,12.63
2023-01-29T17:46:56.316Z,13.47
2023-01-29T17:49:46.351Z,17.60
2023-01-29T17:52:34.817Z,18.07
2023-01-29T17:55:23.441Z,15.50
2023-01-29T17:58:16.183Z,16.93
2023-01-29T18:01:04.885Z,16.40
2023-01-29T18:03:53.543Z,18.20
2023-01-29T18:06:44.915Z,17.60
2023-01-29T18:09:33.448Z,19.10
2023-01-29T18:12:21.900Z,20.70
2023-01-29T18:15:11.601Z,19.83
2023-01-29T18:18:00.456Z,19.73
2023-01-29T18:20:49.111Z,17.50
2023-01-29T18:23:38.944Z,23.97
2023-01-29T18:26:27.629Z,19.47
2023-01-29T18:29:16.443Z,18.77
2023-01-29T18:32:05.552Z,22.37
2023-01-29T18:34:54.639Z,20.87
2023-01-29T18:37:43.192Z,21.47
2023-01-29T18:40:33.510Z,22.50
2023-01-29T18:43:25.457Z,21.77
2023-01-29T18:46:14.903Z,20.47
2023-01-29T18:49:03.563Z,22.67
2023-01-29T18:51:52.075Z,21.03
2023-01-29T18:54:40.555Z,27.93
2023-01-29T18:58:28.591Z,25.30
2023-01-29T19:00:39.383Z,23.53
2023-01-29T19:03:27.968Z,24.57
2023-01-29T19:06:16.530Z,23.67
2023-01-29T19:09:05.301Z,22.60
2023-01-29T19:11:53.813Z,25.03
2023-01-29T19:14:43.785Z,25.13
2023-01-29T19:17:32.727Z,23.07
2023-01-29T19:20:21.388Z,19.70
2023-01-29T19:23:10.083Z,24.57
2023-01-29T19:25:58.784Z,26.07
2023-01-29T19:28:47.384Z,28.43
2023-01-29T19:31:37.348Z,24.63
2023-01-29T19:34:26.756Z,27.43
2023-01-29T19:37:15.398Z,24.30
2023-01-29T19:40:04.149Z,29.10
2023-01-29T19:42:55.013Z,25.97
2023-01-29T19:45:50.281Z,27.03
2023-01-29T19:48:40.571Z,27.97
2023-01-29T19:51:29.351Z,27.93
2023-01-29T19:54:18.272Z,25.73
2023-01-29T19:57:07.583Z,27.17
2023-01-29T19:59:56.135Z,25.40
2023-01-29T20:02:44.719Z,26.20
2023-01-29T20:05:37.427Z,25.27
2023-01-29T20:08:26.267Z,31.47
2023-01-29T20:11:15.261Z,32.20
2023-01-29T20:14:03.938Z,25.93
2023-01-29T20:16:52.448Z,27.10
2023-01-29T20:19:41.026Z,26.60
2023-01-29T20:22:31.145Z,28.33
2023-01-29T20:25:19.683Z,24.77
2023-01-29T20:28:11.591Z,27.90
2023-01-29T20:31:00.509Z,24.67
2023-01-29T20:33:49.096Z,29.00
2023-01-29T20:36:37.621Z,26.27
2023-01-29T20:39:30.779Z,26.97
2023-01-29T20:42:19.418Z,28.00
2023-01-29T20:45:08.545Z,26.17
2023-01-29T20:47:58.487Z,28.23
2023-01-29T20:50:47.088Z,26.90
2023-01-29T20:53:35.622Z,25.33
2023-01-29T20:56:38.169Z,26.87
2023-01-29T20:59:32.860Z,28.97
2023-01-29T21:02:21.385Z,30.27
2023-01-29T21:05:12.474Z,24.87
2023-01-29T21:08:00.958Z,24.77
2023-01-29T21:10:50.479Z,32.37
2023-01-29T21:13:40.498Z,27.43
2023-01-29T21:16:29.364Z,26.30
2023-01-29T21:19:18.069Z,29.93
2023-01-29T21:22:06.716Z,29.10
2023-01-29T21:24:55.202Z,28.60
2023-01-29T21:27:43.731Z,31.30
2023-01-29T21:30:33.886Z,30.80
2023-01-29T21:33:22.409Z,29.80
2023-01-29T21:36:11.288Z,37.07
2023-01-29T21:38:59.871Z,32.73
2023-01-29T21:42:08.438Z,26.80
2023-01-29T21:44:57.008Z,34.17
2023-01-29T21:47:47.027Z,31.20
2023-01-29T21:50:35.653Z,29.30
2023-01-29T21:53:24.140Z,25.60
2023-01-29T21:56:12.644Z,25.63
2023-01-29T21:59:02.339Z,25.63
2023-01-29T22:01:50.940Z,24.20
2023-01-29T22:04:40.911Z,19.83
2023-01-29T22:07:29.948Z,24.70
2023-01-29T22:10:19.925Z,25.13
2023-01-29T22:13:08.949Z,28.07
2023-01-29T22:15:57.433Z,26.20
2023-01-29T22:18:45.936Z,28.17
2023-01-29T22:21:36.065Z,21.37
2023-01-29T22:24:24.666Z,23.63
2023-01-29T22:27:13.501Z,25.47
2023-01-29T22:30:02.130Z,24.67
2023-01-29T22:32:50.755Z,20.83
2023-01-29T22:35:39.371Z,25.00
2023-01-29T22:38:29.258Z,24.77
2023-01-29T22:41:17.723Z,28.07
2023-01-29T22:44:06.370Z,26.17
2023-01-29T22:46:54.918Z,20.73
2023-01-29T22:49:45.464Z,24.73
2023-01-29T22:52:38.535Z,21.47
2023-01-29T22:55:28.464Z,26.83
2023-01-29T22:58:16.929Z,24.47
2023-01-29T23:01:05.861Z,23.80
2023-01-29T23:03:54.547Z,26.17
2023-01-29T23:06:44.123Z,31.77
2023-01-29T23:09:32.629Z,23.90
2023-01-29T23:12:22.439Z,24.13
2023-01-29T23:15:11.154Z,22.83
2023-01-29T23:17:59.606Z,29.37
2023-01-29T23:20:48.159Z,25.30
2023-01-29T23:23:37.757Z,27.70
2023-01-29T23:26:43.900Z,27.57
2023-01-29T23:29:33.742Z,23.43
2023-01-29T23:32:22.542Z,23.10
2023-01-29T23:35:11.283Z,28.60
2023-01-29T23:37:59.788Z,25.90
2023-01-29T23:40:48.673Z,24.37
2023-01-29T23:43:37.167Z,21.60
2023-01-29T23:46:27.085Z,25.07
2023-01-29T23:49:15.576Z,22.27
2023-01-29T23:52:04.252Z,27.97
2023-01-29T23:54:52.785Z,23.37
2023-01-29T23:57:41.298Z,22.50
